Latest Weather Observations for Forbes

IDN60801

Issued at 8:02 pm EST Saturday 30 May 2015 (issued every 30 minutes, with the page automatically refreshed every 10 minutes)

About weather observations | Map of weather stations | Latest weather observations for NSW | Other Formats
Station Details ID: 065103 Name: FORBES AIRPORT AWS Lat: -33.36 Lon: 147.92 Height: 230.4 m
Data from the previous 72 hours. | See also: Recent months at Forbes
Date/Time
EST
Temp
°C
App
Temp
°C
Dew
Point
Rel
Hum
%
Delta-T
°C
Wind Press
QNH
hPa
Press
MSL
hPa
Rain
since 9 am
mm
Dir
 
Spd
km/h
Gust
km/h
Spd
kts
Gust
kts
30/08:00pm 10.6 10.4 9.0 90 0.8 CALM 0 0 0 0 1021.1 1021.1 0.0
30/07:30pm 10.6 10.3 8.5 87 1.0 CALM 0 0 0 0 1021.0 1021.0 0.0
30/07:00pm 10.7 10.4 8.5 86 1.1 CALM 0 0 0 0 1021.0 1021.0 0.0
30/06:30pm 10.6 10.2 8.4 86 1.1 CALM 0 0 0 0 1021.3 1021.3 0.0
30/06:00pm 11.5 11.2 8.5 82 1.5 CALM 0 0 0 0 1020.9 1020.9 0.0
30/05:30pm 12.1 11.6 8.0 76 2.0 CALM 0 0 0 0 1020.7 1020.7 0.0
30/05:00pm 12.7 12.2 8.0 73 2.3 CALM 0 0 0 0 1020.4 1020.4 0.0
30/04:30pm 13.3 12.7 7.3 67 3.0 CALM 0 0 0 0 1020.3 1020.3 0.0
30/04:00pm 13.7 12.6 7.0 64 3.3 SE 2 7 1 4 1020.7 1020.7 0.0
30/03:30pm 13.8 11.4 7.1 64 3.3 S 9 11 5 6 1020.9 1020.9 0.0
30/03:00pm 13.8 11.8 7.1 64 3.3 SE 7 9 4 5 1020.7 1020.7 0.0
30/02:30pm 14.0 11.7 7.3 64 3.3 S 9 13 5 7 1020.7 1020.7 0.0
30/02:00pm 13.9 10.8 7.2 64 3.3 S 13 15 7 8 1020.9 1020.9 0.0
30/01:30pm 13.8 11.6 7.8 67 3.0 SSE 9 13 5 7 1021.0 1021.0 0.0
30/01:00pm 13.7 11.4 7.5 66 3.1 SSE 9 13 5 7 1021.3 1021.3 0.0
30/12:30pm 13.7 11.1 7.7 67 3.0 S 11 13 6 7 1021.9 1022.0 0.0
30/12:00pm 13.7 12.1 8.7 72 2.5 S 7 11 4 6 1022.3 1022.4 0.0
30/11:30am 13.1 11.5 10.1 82 1.6 SSE 9 11 5 6 1022.7 1022.7 0.0
30/11:00am 12.6 11.0 10.1 85 1.3 S 9 11 5 6 1023.6 1023.6 0.0
30/10:30am 12.2 11.3 10.6 90 0.8 SSE 6 7 3 4 1024.0 1024.0 0.0
30/10:00am 11.7 11.9 10.6 93 0.6 CALM 0 0 0 0 1023.8 1023.8 0.0
30/09:30am 10.6 10.7 10.3 98 0.2 CALM 0 0 0 0 1024.2 1024.2 0.0
30/09:00am 9.7 8.5 9.6 99 0.1 SSE 6 7 3 4 1024.1 1024.1 0.0
30/08:30am 9.0 7.4 8.9 99 0.0 SSE 7 11 4 6 1023.8 1023.8 0.0
30/08:00am 8.4 7.6 8.3 99 0.0 SSW 2 6 1 3 1024.1 1024.1 0.0
30/07:30am 7.7 7.1 7.6 99 0.0 CALM 0 0 0 0 1023.7 1023.7 0.0
30/07:00am 6.8 6.0 6.7 99 0.0 CALM 0 0 0 0 1023.6 1023.6 0.0
30/06:30am 7.1 5.3 7.0 99 0.0 SSW 6 7 3 4 1023.4 1023.4 0.0
30/06:00am 6.9 6.2 6.8 99 0.0 CALM 0 0 0 0 1023.3 1023.3 0.0
30/05:30am 7.3 6.7 7.2 99 0.0 CALM 0 0 0 0 1023.1 1023.1 0.0
30/05:00am 7.1 6.4 7.0 99 0.0 CALM 0 0 0 0 1022.7 1022.7 0.0
30/04:30am 8.0 5.8 7.9 99 0.0 SE 9 13 5 7 1022.8 1022.8 0.0
30/04:00am 7.4 6.0 7.1 98 0.1 SE 4 9 2 5 1023.0 1023.0 0.0
30/03:30am 7.9 7.3 7.6 98 0.1 CALM 0 0 0 0 1023.4 1023.4 0.0
30/03:00am 8.4 8.0 8.3 99 0.0 CALM 0 6 0 3 1023.7 1023.7 0.0
30/02:30am 8.9 6.9 8.8 99 0.0 SSE 9 11 5 6 1023.8 1023.8 0.0
30/02:00am 8.1 6.3 8.0 99 0.0 S 7 9 4 5 1023.7 1023.7 0.0
30/01:30am 8.3 6.6 8.2 99 0.0 S 7 9 4 5 1023.8 1023.8 0.0
30/01:00am 7.9 6.6 7.8 99 0.0 S 4 9 2 5 1024.1 1024.1 0.0
30/12:30am 8.6 8.3 8.5 99 0.0 CALM 0 0 0 0 1024.0 1024.0 0.0
30/12:00am 9.3 9.1 9.2 99 0.0 CALM 0 0 0 0 1024.3 1024.3 0.0
 
Date/Time
EST
Temp
°C
App
Temp
°C
Dew
Point
Rel
Hum
%
Delta-T
°C
Wind Press
QNH
hPa
Press
MSL
hPa
Rain
since 9 am
mm
Dir
 
Spd
km/h
Gust
km/h
Spd
kts
Gust
kts
29/11:30pm 9.2 9.0 8.9 98 0.1 CALM 0 0 0 0 1024.6 1024.6 0.0
29/11:00pm 9.6 9.5 9.3 98 0.1 CALM 0 0 0 0 1024.4 1024.4 0.0
29/10:30pm 9.6 9.4 9.1 97 0.2 CALM 0 0 0 0 1024.1 1024.1 0.0
29/10:00pm 10.1 10.0 9.6 97 0.3 CALM 0 0 0 0 1024.1 1024.1 0.0
29/09:30pm 10.2 10.1 9.4 95 0.4 CALM 0 0 0 0 1024.5 1024.5 0.0
29/09:00pm 10.8 10.9 10.2 96 0.3 CALM 0 0 0 0 1024.0 1024.0 0.0
29/08:30pm 10.8 10.9 10.0 95 0.4 CALM 0 0 0 0 1023.9 1023.9 0.0
29/08:00pm 11.1 11.2 10.2 94 0.5 CALM 0 0 0 0 1023.9 1023.9 0.0
29/07:30pm 11.3 11.4 10.0 92 0.7 CALM 0 0 0 0 1023.6 1023.6 0.0
29/07:00pm 12.1 10.9 10.3 89 0.9 SSW 7 7 4 4 1023.7 1023.7 0.0
29/06:30pm 12.8 11.7 10.5 86 1.2 SSW 7 7 4 4 1023.5 1023.5 0.0
29/06:00pm 12.9 11.7 10.4 85 1.3 SSW 7 9 4 5 1023.2 1023.2 0.0
29/05:30pm 14.2 13.1 10.6 79 1.9 S 7 9 4 5 1022.8 1022.8 0.0
29/05:00pm 15.1 14.0 10.7 75 2.3 SSW 7 9 4 5 1022.6 1022.6 0.0
29/04:30pm 16.7 15.7 11.0 69 3.1 SW 7 11 4 6 1022.7 1022.7 0.0
29/04:00pm 16.8 15.3 10.6 67 3.3 S 9 13 5 7 1022.3 1022.4 0.0
29/03:30pm 17.6 16.3 11.2 66 3.5 SSW 9 13 5 7 1022.2 1022.3 0.0
29/03:00pm 17.8 15.6 10.7 63 3.8 SW 13 17 7 9 1022.2 1022.3 0.0
29/02:30pm 17.2 14.9 10.6 65 3.6 SW 13 19 7 10 1022.0 1022.1 0.0
29/02:00pm 17.7 16.1 11.5 67 3.4 SSW 11 20 6 11 1022.1 1022.2 0.0
29/01:30pm 17.5 15.4 11.1 66 3.5 WSW 13 19 7 10 1022.0 1022.1 0.0
29/01:00pm 17.1 15.6 11.8 71 2.9 SW 11 15 6 8 1022.3 1022.4 0.0
29/12:30pm 17.1 15.8 12.6 75 2.5 SW 11 17 6 9 1022.3 1022.4 0.0
29/12:00pm 16.8 15.6 12.9 78 2.2 SW 11 17 6 9 1022.8 1022.8 0.0
29/11:30am 16.5 15.2 13.6 83 1.7 W 13 17 7 9 1023.0 1023.0 0.0
29/11:00am 15.8 15.5 14.3 91 0.9 WSW 9 13 5 7 1023.1 1023.1 0.0
29/10:30am 15.2 14.1 14.4 95 0.5 WNW 13 17 7 9 1023.6 1023.6 0.0
29/10:00am 14.9 14.6 14.3 96 0.3 NW 9 11 5 6 1023.4 1023.4 0.0
29/09:30am 14.6 14.6 14.1 97 0.3 NNW 7 9 4 5 1023.3 1023.3 0.0
29/09:00am 14.5 15.5 14.3 99 0.1 NW 2 9 1 5 1023.4 1023.4 0.6
29/08:30am 14.3 15.6 14.1 99 0.1 CALM 0 0 0 0 1023.2 1023.2 0.6
29/08:00am 14.1 15.3 13.9 99 0.1 CALM 0 0 0 0 1022.6 1022.6 0.6
29/07:30am 14.0 15.2 13.8 99 0.1 CALM 0 0 0 0 1022.2 1022.3 0.6
29/07:00am 14.0 13.9 13.8 99 0.1 W 7 9 4 5 1021.8 1021.9 0.6
29/06:30am 14.0 13.5 13.7 98 0.2 WNW 9 11 5 6 1021.8 1021.9 0.6
29/06:00am 13.9 13.0 13.7 99 0.1 NW 11 13 6 7 1021.3 1021.3 0.6
29/05:30am 13.8 13.6 13.5 98 0.2 NW 7 9 4 5 1021.2 1021.2 0.4
29/05:00am 13.7 12.6 13.2 97 0.3 NW 11 13 6 7 1021.1 1021.1 0.4
29/04:30am 13.7 12.2 13.2 97 0.3 NW 13 15 7 8 1020.6 1020.6 0.4
29/04:00am 14.2 12.8 13.4 95 0.4 WNW 13 15 7 8 1020.4 1020.4 0.4
29/03:30am 14.5 13.0 13.2 92 0.7 WNW 13 15 7 8 1020.5 1020.5 0.2
29/03:00am 14.8 12.9 13.0 89 1.0 NW 15 19 8 10 1020.4 1020.4 0.0
29/02:30am 15.3 12.5 12.6 84 1.5 NW 19 24 10 13 1020.2 1020.2 0.0
29/02:00am 14.8 11.5 12.8 88 1.1 NNW 22 26 12 14 1019.8 1019.8 0.0
29/01:30am 14.8 12.1 12.8 88 1.1 N 19 26 10 14 1020.1 1020.1 0.0
29/01:00am 14.6 13.5 13.0 90 0.9 NNW 11 15 6 8 1020.3 1020.3 0.0
29/12:30am 14.7 13.2 13.1 90 0.9 NNW 13 17 7 9 1020.3 1020.3 0.0
29/12:00am 14.8 12.2 13.2 90 0.9 N 19 24 10 13 1020.5 1020.5 0.0
 
Date/Time
EST
Temp
°C
App
Temp
°C
Dew
Point
Rel
Hum
%
Delta-T
°C
Wind Press
QNH
hPa
Press
MSL
hPa
Rain
since 9 am
mm
Dir
 
Spd
km/h
Gust
km/h
Spd
kts
Gust
kts
28/11:30pm 14.6 12.4 13.3 92 0.7 N 17 20 9 11 1020.7 1020.7 0.0
28/11:00pm 14.5 12.3 13.2 92 0.7 N 17 22 9 12 1020.8 1020.8 0.0
28/10:30pm 14.5 12.3 13.2 92 0.7 N 17 19 9 10 1021.0 1021.0 0.0
28/10:00pm 14.7 12.2 13.6 93 0.6 N 19 22 10 12 1021.1 1021.1 0.0
28/09:30pm 14.7 12.6 13.7 94 0.6 N 17 22 9 12 1021.2 1021.2 0.0
28/09:00pm 14.6 13.3 13.8 95 0.5 N 13 20 7 11 1021.1 1021.1 0.0
28/08:30pm 14.4 13.1 13.8 96 0.3 N 13 17 7 9 1021.1 1021.1 0.0
28/08:00pm 14.5 13.3 13.9 96 0.3 N 13 15 7 8 1021.1 1021.1 0.0
28/07:30pm 14.8 13.1 13.5 92 0.7 N 15 17 8 9 1021.2 1021.2 0.0
28/07:00pm 15.2 14.5 13.1 87 1.2 NNE 9 11 5 6 1021.0 1021.0 0.0
28/06:30pm 15.6 14.4 12.9 84 1.5 N 11 13 6 7 1020.9 1020.9 0.0
28/06:00pm 15.9 14.0 13.0 83 1.6 N 15 19 8 10 1020.7 1020.7 0.0
28/05:30pm 16.1 15.0 13.0 82 1.7 N 11 15 6 8 1020.6 1020.6 0.0
28/05:00pm 16.8 14.1 12.9 78 2.2 N 19 26 10 14 1020.6 1020.6 0.0
28/04:30pm 17.5 15.9 12.8 74 2.6 N 13 15 7 8 1020.6 1020.6 0.0
28/04:00pm 17.9 15.1 12.6 71 3.0 NNW 19 24 10 13 1020.7 1020.7 0.0
28/03:30pm 18.2 15.3 12.9 71 3.0 NNW 20 24 11 13 1020.4 1020.4 0.0
28/03:00pm 18.7 15.7 12.7 68 3.4 NNW 20 28 11 15 1020.5 1020.5 0.0
28/02:30pm 18.3 14.9 12.5 69 3.3 N 22 30 12 16 1020.7 1020.7 0.0
28/02:00pm 18.0 14.4 12.9 72 2.9 NNW 24 30 13 16 1020.9 1020.9 0.0
28/01:30pm 18.2 14.9 12.9 71 3.0 NNW 22 28 12 15 1021.0 1021.0 0.0
28/01:00pm 17.7 14.5 13.0 74 2.7 NNW 22 28 12 15 1021.5 1021.5 0.0
28/12:30pm 17.4 14.5 12.9 75 2.5 N 20 24 11 13 1021.9 1022.0 0.0
28/12:00pm 17.3 14.6 13.0 76 2.4 N 19 24 10 13 1022.5 1022.5 0.0
28/11:30am 16.4 14.2 13.3 82 1.8 N 17 22 9 12 1023.1 1023.1 0.0
28/11:00am 15.3 13.6 12.6 84 1.5 N 13 19 7 10 1023.7 1023.7 0.0
28/10:30am 14.5 13.7 12.9 90 0.9 N 9 11 5 6 1023.9 1023.9 0.0
28/10:00am 13.9 12.6 12.5 91 0.8 N 11 13 6 7 1024.2 1024.2 0.0
28/09:30am 13.5 12.2 12.6 94 0.5 N 11 11 6 6 1024.0 1024.0 0.0
28/09:00am 13.1 12.1 12.3 95 0.4 NNE 9 11 5 6 1023.8 1023.8 0.0
28/08:30am 12.7 11.2 11.9 95 0.4 NNE 11 13 6 7 1023.5 1023.5 0.0
28/08:00am 12.1 10.5 11.6 97 0.3 NE 11 13 6 7 1023.0 1023.0 0.0
28/07:30am 10.6 9.3 10.1 97 0.3 ENE 7 11 4 6 1023.0 1023.0 0.0
28/07:00am 10.1 8.3 9.3 95 0.4 NE 9 11 5 6 1022.9 1022.9 0.0
28/06:30am 10.8 10.5 10.2 96 0.3 ENE 2 11 1 6 1022.6 1022.6 0.0
28/06:00am 10.6 10.6 9.8 95 0.4 CALM 0 0 0 0 1022.1 1022.2 0.0
28/05:30am 10.5 10.5 9.9 96 0.3 CALM 0 0 0 0 1022.5 1022.5 0.0
28/05:00am 10.4 9.3 9.8 96 0.3 ESE 6 7 3 4 1022.3 1022.4 0.0
28/04:30am 10.3 10.3 9.7 96 0.3 CALM 0 0 0 0 1022.1 1022.2 0.0
28/04:00am 10.3 10.3 9.8 97 0.3 CALM 0 0 0 0 1022.2 1022.3 0.0
28/03:30am 10.0 9.9 9.4 96 0.3 CALM 0 0 0 0 1022.5 1022.5 0.0
28/03:00am 9.7 9.5 9.1 96 0.3 CALM 0 0 0 0 1022.3 1022.4 0.0
28/02:30am 10.0 9.9 9.5 97 0.3 CALM 0 0 0 0 1022.2 1022.3 0.0
28/02:00am 9.3 7.9 9.0 98 0.1 E 6 7 3 4 1022.5 1022.5 0.0
28/01:30am 8.3 6.0 7.5 95 0.4 E 9 11 5 6 1022.3 1022.4 0.0
28/01:00am 9.1 7.0 8.3 95 0.4 E 9 9 5 5 1022.7 1022.7 0.0
28/12:30am 9.5 7.2 8.9 96 0.3 E 11 11 6 6 1022.9 1022.9 0.0
28/12:00am 9.4 7.3 8.3 93 0.5 NE 9 9 5 5 1023.3 1023.3 0.0
 
Date/Time
EST
Temp
°C
App
Temp
°C
Dew
Point
Rel
Hum
%
Delta-T
°C
Wind Press
QNH
hPa
Press
MSL
hPa
Rain
since 9 am
mm
Dir
 
Spd
km/h
Gust
km/h
Spd
kts
Gust
kts
27/11:30pm 10.0 9.8 9.1 94 0.5 CALM 0 6 0 3 1023.5 1023.5 0.0
27/11:00pm 10.4 8.6 9.3 93 0.6 NNE 9 11 5 6 1023.4 1023.4 0.0
27/10:30pm 10.4 9.5 9.3 93 0.6 NE 4 7 2 4 1023.3 1023.3 0.0
27/10:00pm 10.8 9.4 9.4 91 0.7 NE 7 11 4 6 1023.3 1023.3 0.0
27/09:30pm 12.1 12.0 10.7 91 0.7 ENE 2 7 1 4 1023.4 1023.4 0.0
27/09:00pm 12.3 10.9 10.9 91 0.7 NE 9 9 5 5 1023.3 1023.3 0.0
27/08:30pm 11.9 10.9 10.3 90 0.8 ENE 6 7 3 4 1023.5 1023.5 0.0

Other Formats:

Comma delimited format used in spreadsheet applications
http://www.bom.gov.au/fwo/IDN60801/IDN60801.94715.axf

JavaScript Object Notation format (JSON) in row-major order
http://www.bom.gov.au/fwo/IDN60801/IDN60801.94715.json